Time;durP1;ratioP1;P1;durP2;ratioP2;P2;SDS_P1;SDS_P2;PMS_P1;PMS_P2;Temp;Humidity;BMP_temperature;BMP_pressure;BME280_temperature;BME280_humidity;BME280_pressure;Samples;Min_cycle;Max_cycle;Signal;HPM_P1;HPM_P2
2022/12/08 00:18:19;;;;;;;8.80;4.30;;;;;;;5.96;56.37;98531.81;221531;1254;635614;-63
2022/12/08 00:24:32;;;;;;;;;;;;;;;;;;;;;
2022/12/08 00:45:36;;;;;;;10.10;4.40;;;;;;;5.77;56.27;98545.27;222153;1246;635282;-68
2022/12/08 01:13:48;;;;;;;11.60;4.30;;;;;;;5.79;56.26;98558.23;221474;1253;636233;-67
2022/12/08 01:19:18;;;;;;;7.30;4.00;;;;;;;5.77;56.16;98572.20;223140;1241;136943;-66
2022/12/08 01:24:32;;;;;;;7.50;4.00;;;;;;;5.77;56.29;98569.05;222725;1241;137009;-66
2022/12/08 01:30:19;;;;;;;;;;;;;;;;;;;;;
2022/12/08 01:36:11;;;;;;;6.80;3.90;;;;;;;5.84;56.23;98560.59;223653;1244;137169;-67
2022/12/08 01:41:43;;;;;;;7.10;3.90;;;;;;;5.81;56.10;98557.58;224770;1239;137294;-66
2022/12/08 01:47:20;;;;;;;;;;;;;;;;;;;;;
2022/12/08 01:53:00;;;;;;;5.30;3.30;;;;;;;5.76;56.11;98561.52;223964;1237;137395;-69
2022/12/08 02:07:07;;;;;;;5.00;3.00;;;;;;;5.69;56.01;98559.75;224286;1233;137345;-67
2022/12/08 02:19:01;;;;;;;6.10;3.70;;;;;;;5.59;56.20;98565.52;223254;1237;137500;-66
2022/12/08 02:28:09;;;;;;;7.40;3.40;;;;;;;5.72;56.15;98564.14;222025;1239;653411;-65
2022/12/08 02:34:03;;;;;;;5.20;3.60;;;;;;;5.66;55.78;98564.27;223145;1240;137311;-66
2022/12/08 02:39:19;;;;;;;4.90;3.40;;;;;;;5.51;56.23;98575.40;222886;1233;137357;-65
2022/12/08 02:53:02;;;;;;;;;;;;;;;;;;;;;
2022/12/08 03:02:50;;;;;;;6.20;3.80;;;;;;;5.25;57.08;98571.61;221293;1251;638476;-65
2022/12/08 03:19:20;;;;;;;8.70;4.50;;;;;;;5.11;57.56;98572.95;221235;1252;637667;-66
2022/12/08 03:25:23;;;;;;;7.20;4.40;;;;;;;5.08;57.43;98568.55;223286;1240;136766;-67
2022/12/08 03:30:37;;;;;;;8.10;4.10;;;;;;;5.06;57.74;98570.55;223040;1239;137135;-66
2022/12/08 03:35:46;;;;;;;7.60;4.10;;;;;;;5.05;57.57;98567.43;222833;1240;137182;-65
2022/12/08 03:46:21;;;;;;;8.20;4.10;;;;;;;5.07;57.79;98570.36;223083;1240;137531;-70
2022/12/08 03:57:20;;;;;;;7.90;3.80;;;;;;;5.02;58.20;98562.85;222343;1242;137575;-65
2022/12/08 04:02:39;;;;;;;39.30;24.40;;;;;;;5.16;58.65;98566.21;222963;1240;136911;-66
2022/12/08 04:08:29;;;;;;;6.40;4.40;;;;;;;5.22;58.86;98564.88;222971;1234;137815;-64
2022/12/08 04:14:13;;;;;;;6.20;4.00;;;;;;;5.21;57.92;98562.09;223146;1240;138604;-68
2022/12/08 04:20:26;;;;;;;19.90;11.70;;;;;;;5.19;58.12;98566.25;223385;1233;137446;-66
2022/12/08 04:25:48;;;;;;;10.50;4.60;;;;;;;5.15;58.39;98562.22;224223;1235;137701;-63
2022/12/08 04:31:50;;;;;;;;;;;;;;;;;;;;;
2022/12/08 04:36:54;;;;;;;9.60;4.20;;;;;;;5.09;58.16;98559.83;224665;1233;137622;-63
2022/12/08 04:42:08;;;;;;;9.50;4.50;;;;;;;5.03;58.22;98559.98;224658;1234;137418;-64
2022/12/08 04:47:27;;;;;;;;;;;;;;;;;;;;;
2022/12/08 04:54:11;;;;;;;9.70;4.60;;;;;;;4.92;58.62;98557.83;225046;1233;137227;-69
2022/12/08 04:59:44;;;;;;;107.80;72.90;;;;;;;4.92;59.06;98550.81;224851;1233;138302;-63
2022/12/08 05:05:20;;;;;;;15.70;10.00;;;;;;;5.04;59.89;98549.73;224191;1236;137656;-68
2022/12/08 05:10:25;;;;;;;9.30;5.80;;;;;;;5.05;59.31;98552.66;224088;1237;137515;-66
2022/12/08 05:15:52;;;;;;;13.60;4.70;;;;;;;5.03;59.13;98547.66;223048;1232;137687;-64
2022/12/08 05:21:20;;;;;;;9.50;4.80;;;;;;;5.01;59.10;98544.08;224057;1234;137683;-65
2022/12/08 05:26:33;;;;;;;13.40;4.80;;;;;;;4.94;59.75;98548.26;224628;1234;137398;-64
2022/12/08 05:32:06;;;;;;;10.90;4.90;;;;;;;4.87;60.53;98550.31;224736;1234;137718;-64
2022/12/08 05:37:14;;;;;;;16.60;5.00;;;;;;;4.84;61.19;98558.39;224772;1237;137616;-63
2022/12/08 05:42:25;;;;;;;11.00;4.60;;;;;;;4.81;61.42;98558.90;224886;1236;137959;-64
2022/12/08 05:47:41;;;;;;;13.00;5.20;;;;;;;4.78;61.68;98559.20;224962;1234;138772;-64
2022/12/08 05:58:43;;;;;;;13.00;5.60;;;;;;;4.69;61.98;98561.70;225147;1234;137643;-68
2022/12/08 06:03:48;;;;;;;10.10;5.00;;;;;;;4.63;61.84;98567.80;224164;1233;137870;-67
2022/12/08 06:08:58;;;;;;;8.10;5.40;;;;;;;4.59;62.28;98565.88;224278;1228;138554;-64
2022/12/08 06:14:18;;;;;;;18.00;5.60;;;;;;;4.55;62.46;98576.60;224220;1235;137636;-66
2022/12/08 06:19:34;;;;;;;;;;;;;;;;;;;;;
2022/12/08 06:24:49;;;;;;;21.60;6.70;;;;;;;4.54;62.54;98593.16;224112;1236;137744;-66
2022/12/08 06:29:58;;;;;;;21.40;6.70;;;;;;;4.50;63.01;98591.41;224498;1241;137852;-65
2022/12/08 06:35:09;;;;;;;24.60;6.40;;;;;;;4.49;63.28;98591.27;224292;1236;138567;-65
2022/12/08 06:40:54;;;;;;;19.80;6.60;;;;;;;4.51;63.60;98597.50;222899;1240;137797;-64
2022/12/08 06:46:21;;;;;;;24.00;6.70;;;;;;;4.54;63.46;98605.30;223107;1238;140081;-64
2022/12/08 06:51:43;;;;;;;;;;;;;;;;;;;;;
2022/12/08 06:58:03;;;;;;;25.20;6.70;;;;;;;4.78;62.82;98606.14;222962;1240;139443;-64
2022/12/08 07:04:17;;;;;;;19.90;5.80;;;;;;;4.98;61.92;98607.52;222923;1242;138617;-63
2022/12/08 07:10:15;;;;;;;15.50;5.40;;;;;;;5.14;60.73;98611.68;223089;1239;137364;-64
2022/12/08 07:15:39;;;;;;;11.80;4.60;;;;;;;5.18;59.71;98613.91;224088;1235;137439;-64
2022/12/08 07:20:45;;;;;;;8.80;4.90;;;;;;;5.20;59.50;98615.45;224145;1240;138088;-65
2022/12/08 07:34:51;;;;;;;12.20;5.50;;;;;;;5.24;60.24;98623.35;222101;1247;653240;-64
2022/12/08 08:07:35;;;;;;;12.20;5.90;;;;;;;5.24;61.14;98625.25;221471;1251;635239;-64
2022/12/08 08:12:48;;;;;;;16.50;6.10;;;;;;;5.31;60.15;98625.14;223371;1239;137502;-65
2022/12/08 08:18:01;;;;;;;16.40;6.30;;;;;;;5.35;59.41;98629.86;223698;1239;137288;-68
2022/12/08 08:23:35;;;;;;;14.90;6.50;;;;;;;5.43;58.87;98624.19;223134;1242;137331;-62
2022/12/08 08:28:42;;;;;;;18.40;5.90;;;;;;;5.54;58.54;98620.87;223185;1240;137185;-63
2022/12/08 08:33:50;;;;;;;16.20;5.90;;;;;;;5.58;58.06;98615.20;223066;1236;137170;-64
2022/12/08 08:38:57;;;;;;;13.20;6.50;;;;;;;5.65;58.18;98618.02;223158;1240;138610;-66
2022/12/08 08:44:09;;;;;;;14.70;6.10;;;;;;;5.77;58.20;98614.77;223079;1239;137511;-65
2022/12/08 08:49:21;;;;;;;20.10;6.00;;;;;;;5.86;57.85;98612.04;222980;1239;137619;-65
2022/12/08 08:54:59;;;;;;;12.00;5.40;;;;;;;5.95;57.32;98612.52;223334;1240;137405;-65
2022/12/08 09:06:06;;;;;;;11.90;6.00;;;;;;;6.07;57.09;98608.39;222870;1240;137730;-64
2022/12/08 09:11:49;;;;;;;9.90;5.90;;;;;;;6.20;57.14;98606.52;222962;1244;137551;-65
2022/12/08 09:17:42;;;;;;;;;;;;;;;;;;;;;
2022/12/08 09:23:27;;;;;;;16.30;5.90;;;;;;;6.25;56.20;98593.41;223326;1241;137365;-64
2022/12/08 09:29:31;;;;;;;;;;;;;;;;;;;;;
2022/12/08 09:35:24;;;;;;;13.80;6.00;;;;;;;6.40;56.22;98586.79;222645;1238;138235;-64
2022/12/08 09:40:52;;;;;;;13.50;6.10;;;;;;;6.37;55.98;98581.65;222770;1240;137896;-68
2022/12/08 09:45:58;;;;;;;18.40;7.10;;;;;;;6.38;56.02;98575.26;222823;1241;138049;-68
2022/12/08 09:51:04;;;;;;;21.60;9.40;;;;;;;6.48;56.09;98573.53;222743;1241;137731;-65
2022/12/08 09:56:15;;;;;;;13.50;6.00;;;;;;;6.53;55.69;98570.63;222984;1232;138032;-64
2022/12/08 10:01:46;;;;;;;10.70;6.20;;;;;;;6.51;55.41;98563.45;222918;1240;137797;-65
2022/12/08 10:17:01;;;;;;;12.60;6.50;;;;;;;6.53;55.15;98546.02;221458;1250;635407;-64
2022/12/08 10:23:38;;;;;;;13.40;6.20;;;;;;;6.55;54.95;98541.92;222751;1236;137013;-65
2022/12/08 10:29:40;;;;;;;15.60;6.40;;;;;;;6.57;54.87;98541.48;222803;1243;137472;-64
2022/12/08 10:35:17;;;;;;;13.00;6.40;;;;;;;6.57;54.51;98543.42;222562;1239;137049;-65
2022/12/08 10:41:18;;;;;;;15.70;6.70;;;;;;;6.61;54.31;98537.89;223130;1240;137963;-63
2022/12/08 10:46:31;;;;;;;14.40;6.60;;;;;;;6.66;54.39;98540.27;223349;1238;137166;-65
2022/12/08 10:52:23;;;;;;;22.00;12.70;;;;;;;6.78;54.35;98533.27;222858;1234;137281;-64
2022/12/08 10:58:11;;;;;;;;;;;;;;;;;;;;;
2022/12/08 11:04:21;;;;;;;9.20;6.50;;;;;;;6.87;53.56;98519.75;223529;1240;137411;-64
2022/12/08 11:10:38;;;;;;;9.60;6.80;;;;;;;6.90;52.78;98517.83;224002;1240;137127;-65
2022/12/08 11:16:42;;;;;;;12.10;6.30;;;;;;;6.92;53.20;98511.58;223025;1240;137320;-65
2022/12/08 11:22:36;;;;;;;9.80;6.50;;;;;;;6.89;52.90;98511.20;222926;1240;137537;-64
2022/12/08 11:28:27;;;;;;;11.00;5.90;;;;;;;6.86;52.79;98510.08;223322;1240;138346;-64
2022/12/08 11:33:54;;;;;;;13.40;6.50;;;;;;;6.86;52.70;98508.17;223001;1240;137088;-65
2022/12/08 11:39:47;;;;;;;8.20;5.60;;;;;;;6.83;52.92;98510.08;222809;1240;137238;-64
2022/12/08 11:45:10;;;;;;;8.50;5.60;;;;;;;6.83;52.70;98510.77;222307;1243;137216;-65
2022/12/08 11:50:42;;;;;;;8.30;5.80;;;;;;;6.82;52.85;98506.45;222781;1236;138171;-65
2022/12/08 11:55:56;;;;;;;9.30;5.70;;;;;;;6.83;52.86;98508.33;222912;1240;137472;-66
2022/12/08 12:01:01;;;;;;;10.20;5.70;;;;;;;6.80;52.83;98504.45;223526;1236;137690;-64
2022/12/08 12:06:23;;;;;;;10.40;5.90;;;;;;;6.81;53.02;98505.45;223613;1237;137696;-65
2022/12/08 12:12:44;;;;;;;15.30;6.40;;;;;;;6.83;53.21;98507.27;223980;1235;137218;-65
2022/12/08 12:18:01;;;;;;;12.00;5.80;;;;;;;6.86;53.23;98509.40;223602;1236;142736;-64
2022/12/08 12:23:34;;;;;;;10.10;5.90;;;;;;;6.82;53.24;98510.84;223881;1237;137818;-65
2022/12/08 12:29:07;;;;;;;10.50;6.20;;;;;;;6.81;53.54;98509.34;223876;1229;138024;-65
2022/12/08 12:34:24;;;;;;;10.40;6.20;;;;;;;6.78;54.01;98504.73;223807;1237;137369;-65
2022/12/08 12:39:34;;;;;;;9.40;6.50;;;;;;;6.78;54.02;98505.96;223894;1236;137682;-64
2022/12/08 12:44:52;;;;;;;25.10;16.10;;;;;;;6.79;54.46;98503.95;224195;1237;139246;-64
2022/12/08 12:50:43;;;;;;;8.00;5.60;;;;;;;6.81;54.41;98494.71;224033;1236;137756;-64
2022/12/08 12:55:57;;;;;;;8.80;5.80;;;;;;;6.78;54.48;98486.75;223936;1236;137399;-64
2022/12/08 13:01:11;;;;;;;10.10;6.20;;;;;;;6.73;54.74;98487.73;224182;1236;138158;-65
2022/12/08 13:06:34;;;;;;;8.90;6.20;;;;;;;6.70;55.25;98490.00;224526;1236;138194;-65
2022/12/08 13:12:08;;;;;;;8.40;6.20;;;;;;;6.68;55.23;98489.27;224321;1227;137831;-64
2022/12/08 13:17:19;;;;;;;;;;;;;;;6.62;56.13;98479.36;224532;1236;138622;-65
2022/12/08 13:22:49;;;;;;;8.00;5.70;;;;;;;6.60;55.89;98479.29;224590;1234;125145;-65
2022/12/08 13:27:55;;;;;;;12.10;6.50;;;;;;;6.59;56.06;98481.11;224784;1226;137706;-64
2022/12/08 13:33:00;;;;;;;12.40;6.60;;;;;;;6.58;55.67;98479.74;224560;1234;137572;-64
2022/12/08 13:38:38;;;;;;;9.90;7.10;;;;;;;6.60;55.80;98478.25;224488;1236;137512;-64
2022/12/08 13:43:54;;;;;;;13.50;7.80;;;;;;;6.61;55.96;98476.43;224140;1233;137823;-64
2022/12/08 13:49:26;;;;;;;10.40;7.00;;;;;;;6.62;55.69;98468.93;224202;1236;138139;-64
2022/12/08 13:54:54;;;;;;;9.20;6.60;;;;;;;6.63;57.33;98465.55;224191;1236;138748;-65
2022/12/08 14:00:26;;;;;;;10.20;6.70;;;;;;;6.61;57.81;98467.26;224562;1234;137757;-65
2022/12/08 14:05:42;;;;;;;10.80;7.60;;;;;;;6.58;58.65;98471.82;224710;1234;137755;-65
2022/12/08 14:11:32;;;;;;;10.90;7.30;;;;;;;6.53;59.13;98473.32;223982;1235;138688;-66
2022/12/08 14:16:47;;;;;;;16.90;8.60;;;;;;;6.48;59.57;98475.71;224085;1227;138256;-65
2022/12/08 14:22:07;;;;;;;13.30;8.30;;;;;;;6.43;59.85;98478.11;224155;1230;138106;-66
2022/12/08 14:27:21;;;;;;;13.10;8.30;;;;;;;6.38;60.11;98482.94;224254;1233;138001;-65
2022/12/08 14:32:30;;;;;;;12.70;8.30;;;;;;;6.33;60.94;98480.00;224336;1236;138417;-65
2022/12/08 14:37:45;;;;;;;12.50;8.00;;;;;;;6.28;60.94;98481.35;224672;1236;137617;-64
2022/12/08 14:43:58;;;;;;;13.50;8.30;;;;;;;6.23;61.14;98477.77;224345;1235;137954;-64
2022/12/08 14:49:03;;;;;;;15.60;8.60;;;;;;;6.17;61.68;98479.12;224503;1236;138415;-65
2022/12/08 14:54:19;;;;;;;13.60;8.90;;;;;;;6.17;62.21;98479.34;224835;1227;140185;-63
2022/12/08 14:59:29;;;;;;;30.90;22.60;;;;;;;6.18;62.51;98477.17;224802;1233;137875;-63
2022/12/08 15:04:47;;;;;;;19.20;13.10;;;;;;;6.23;62.52;98478.48;224046;1233;137988;-64
2022/12/08 15:10:14;;;;;;;17.10;10.90;;;;;;;6.19;62.36;98479.73;224342;1236;137908;-64
2022/12/08 15:15:25;;;;;;;13.80;9.90;;;;;;;6.13;62.39;98478.48;224475;1233;138309;-64
2022/12/08 15:20:37;;;;;;;17.30;11.60;;;;;;;6.09;62.48;98473.04;224459;1226;138016;-64
2022/12/08 15:25:50;;;;;;;17.60;10.70;;;;;;;6.07;62.56;98469.46;224577;1233;138209;-64
2022/12/08 15:30:57;;;;;;;17.00;10.40;;;;;;;6.05;62.53;98465.19;224366;1234;138038;-64
2022/12/08 15:36:09;;;;;;;19.90;12.00;;;;;;;6.02;62.48;98466.40;224590;1237;137497;-66
2022/12/08 15:41:14;;;;;;;18.70;12.70;;;;;;;6.00;62.18;98462.77;224554;1233;138038;-65
2022/12/08 15:46:18;;;;;;;20.40;12.90;;;;;;;6.00;62.52;98459.82;224889;1233;138467;-65
2022/12/08 15:51:24;;;;;;;22.40;14.00;;;;;;;5.99;62.37;98462.65;225018;1233;139176;-65
2022/12/08 15:56:28;;;;;;;26.70;13.90;;;;;;;5.97;62.35;98460.14;224827;1234;138908;-67
2022/12/08 16:01:36;;;;;;;24.70;14.60;;;;;;;5.94;62.81;98453.25;224957;1233;137760;-67
2022/12/08 16:06:42;;;;;;;21.90;14.90;;;;;;;5.91;62.81;98452.85;225096;1233;137545;-67
2022/12/08 16:18:14;;;;;;;40.50;24.00;;;;;;;5.90;62.82;98446.36;225437;1226;137501;-65
2022/12/08 16:23:17;;;;;;;28.60;17.00;;;;;;;5.99;62.21;98443.48;225354;1227;137999;-67
2022/12/08 16:28:41;;;;;;;26.00;15.50;;;;;;;6.00;61.84;98446.42;224991;1233;138322;-66
2022/12/08 16:33:56;;;;;;;26.30;15.30;;;;;;;5.97;61.79;98445.20;224768;1236;138306;-65
2022/12/08 16:39:00;;;;;;;21.30;14.70;;;;;;;5.93;61.57;98443.24;225032;1233;137604;-68
2022/12/08 16:44:09;;;;;;;24.30;14.20;;;;;;;5.91;61.62;98441.22;224317;1235;138721;-63
2022/12/08 16:49:43;;;;;;;24.30;14.50;;;;;;;5.87;61.63;98439.84;224639;1236;137874;-64
2022/12/08 16:55:14;;;;;;;27.50;17.10;;;;;;;5.83;61.79;98445.48;226767;1234;138447;-64
2022/12/08 17:00:26;;;;;;;26.20;16.30;;;;;;;5.80;62.10;98439.16;226616;1241;138592;-65
2022/12/08 17:05:31;;;;;;;27.70;16.70;;;;;;;5.77;62.35;98438.60;226563;1230;138853;-64
2022/12/08 17:10:38;;;;;;;26.70;17.20;;;;;;;5.75;62.22;98435.04;226798;1249;137750;-64
2022/12/08 17:15:41;;;;;;;89.90;57.70;;;;;;;5.72;62.23;98432.54;226875;1241;138806;-63
2022/12/08 17:20:44;;;;;;;35.20;20.80;;;;;;;5.78;62.47;98430.66;226466;1240;138933;-64
2022/12/08 17:25:58;;;;;;;32.90;18.40;;;;;;;5.79;62.12;98428.80;227683;1227;138795;-64
2022/12/08 17:31:11;;;;;;;29.20;17.50;;;;;;;5.76;62.14;98433.19;227742;1234;138085;-64
2022/12/08 17:36:16;;;;;;;27.10;16.30;;;;;;;5.74;62.47;98431.21;227647;1226;138346;-64
2022/12/08 17:41:20;;;;;;;30.40;17.80;;;;;;;5.72;62.69;98437.67;227652;1231;139400;-64
2022/12/08 17:46:23;;;;;;;29.50;17.50;;;;;;;5.70;62.48;98435.08;227837;1234;138069;-64
2022/12/08 17:51:26;;;;;;;30.30;17.00;;;;;;;5.71;62.46;98433.09;226805;1244;137608;-65
2022/12/08 17:56:29;;;;;;;28.50;16.80;;;;;;;5.74;62.51;98424.02;226743;1249;138179;-67
2022/12/08 18:01:33;;;;;;;30.10;16.30;;;;;;;5.73;62.50;98426.34;226581;1249;138749;-66
2022/12/08 18:06:37;;;;;;;34.30;17.20;;;;;;;5.67;62.51;98421.17;226808;1234;138731;-68
2022/12/08 18:11:42;;;;;;;32.10;16.60;;;;;;;5.68;62.38;98423.58;226767;1227;138262;-67
2022/12/08 18:16:46;;;;;;;31.20;17.40;;;;;;;5.75;62.57;98415.83;226807;1233;140151;-67
2022/12/08 18:21:49;;;;;;;39.30;17.90;;;;;;;5.81;62.52;98403.04;226829;1237;140782;-67
2022/12/08 18:26:54;;;;;;;33.40;19.50;;;;;;;5.84;62.50;98404.27;226861;1238;138627;-67
2022/12/08 18:31:57;;;;;;;37.30;19.00;;;;;;;5.87;62.10;98402.36;226512;1249;138322;-67
2022/12/08 18:37:00;;;;;;;31.20;18.50;;;;;;;5.89;62.17;98398.91;226940;1238;138601;-66
2022/12/08 18:42:27;;;;;;;29.30;17.80;;;;;;;5.85;62.15;98393.83;226729;1250;139142;-65
2022/12/08 18:47:33;;;;;;;32.50;18.80;;;;;;;5.82;62.12;98388.52;226582;1243;139082;-64
2022/12/08 18:52:37;;;;;;;36.80;18.70;;;;;;;5.77;62.11;98385.08;226910;1237;137841;-64
2022/12/08 18:57:44;;;;;;;52.10;28.90;;;;;;;5.81;62.59;98382.08;226933;1235;138358;-65
2022/12/08 19:02:49;;;;;;;37.20;21.50;;;;;;;5.88;62.36;98386.27;226563;1249;137943;-68
2022/12/08 19:07:52;;;;;;;38.70;20.40;;;;;;;5.86;61.91;98385.84;226699;1249;138769;-66
2022/12/08 19:12:55;;;;;;;38.60;20.30;;;;;;;5.84;61.19;98380.85;226899;1240;138365;-66
2022/12/08 19:18:00;;;;;;;34.60;17.90;;;;;;;5.88;60.51;98379.39;226885;1226;139547;-65
2022/12/08 19:23:04;;;;;;;26.60;16.20;;;;;;;5.93;59.72;98376.68;226789;1248;138141;-64
2022/12/08 19:28:17;;;;;;;30.70;18.50;;;;;;;6.05;59.52;98371.99;227057;1233;138453;-64
2022/12/08 19:33:21;;;;;;;25.30;13.50;;;;;;;6.22;58.49;98368.98;226904;1249;139225;-65
2022/12/08 19:38:24;;;;;;;27.30;15.00;;;;;;;6.27;58.21;98368.88;226686;1233;138333;-66
2022/12/08 19:48:50;;;;;;;28.70;14.40;;;;;;;6.37;57.76;98369.92;226887;1246;139054;-65
2022/12/08 19:53:53;;;;;;;25.30;13.20;;;;;;;6.43;56.97;98366.91;227692;1234;138227;-65
2022/12/08 19:58:56;;;;;;;21.60;12.70;;;;;;;6.43;56.68;98366.77;226782;1238;138096;-67
2022/12/08 20:03:59;;;;;;;24.80;13.30;;;;;;;6.43;56.45;98362.38;227541;1242;138794;-68
2022/12/08 20:09:06;;;;;;;27.00;13.80;;;;;;;6.43;56.21;98364.30;226225;1238;138375;-63
2022/12/08 20:14:12;;;;;;;21.60;13.20;;;;;;;6.45;56.19;98360.12;226733;1249;138943;-65
2022/12/08 20:19:16;;;;;;;30.90;13.50;;;;;;;6.45;56.13;98365.04;227677;1242;138463;-65
2022/12/08 20:24:19;;;;;;;25.80;14.10;;;;;;;6.47;56.10;98362.64;226737;1234;139456;-64
2022/12/08 20:29:22;;;;;;;25.90;14.40;;;;;;;6.49;56.39;98362.35;226667;1230;138471;-67
2022/12/08 20:34:25;;;;;;;31.70;19.50;;;;;;;6.48;58.07;98365.23;227066;1249;138402;-66
2022/12/08 20:39:28;;;;;;;46.70;29.30;;;;;;;6.42;59.35;98360.65;226777;1243;138671;-67
2022/12/08 20:44:32;;;;;;;50.90;33.10;;;;;;;6.41;59.72;98354.86;226581;1242;138492;-65
2022/12/08 20:49:35;;;;;;;43.00;25.20;;;;;;;6.56;60.67;98353.35;227657;1233;138722;-66
2022/12/08 20:54:38;;;;;;;37.80;24.30;;;;;;;6.44;59.73;98357.55;226459;1238;139304;-66
2022/12/08 20:59:41;;;;;;;41.40;24.80;;;;;;;6.27;59.80;98359.86;226433;1234;139606;-66
2022/12/08 21:04:45;;;;;;;50.00;25.80;;;;;;;6.15;60.31;98364.08;226425;1242;138397;-69
2022/12/08 21:09:48;;;;;;;42.30;24.00;;;;;;;6.06;60.35;98368.45;226594;1234;138491;-67
2022/12/08 21:14:51;;;;;;;42.00;24.10;;;;;;;5.96;60.76;98368.81;226710;1249;138906;-67
2022/12/08 21:19:55;;;;;;;41.00;24.90;;;;;;;5.90;61.16;98369.45;226731;1240;139096;-66
2022/12/08 21:24:58;;;;;;;39.60;24.00;;;;;;;5.86;61.21;98362.95;227596;1230;138103;-65
2022/12/08 21:30:01;;;;;;;39.50;24.30;;;;;;;5.81;61.66;98365.36;227629;1233;138158;-66
2022/12/08 21:35:08;;;;;;;42.60;23.90;;;;;;;5.77;62.01;98370.84;226694;1249;138700;-65
2022/12/08 21:40:14;;;;;;;39.20;24.10;;;;;;;5.73;61.92;98368.05;226433;1240;138892;-66
2022/12/08 21:45:20;;;;;;;45.50;25.40;;;;;;;5.74;62.10;98360.30;227647;1234;139905;-65
2022/12/08 21:50:24;;;;;;;46.40;24.80;;;;;;;5.70;62.19;98364.20;226605;1242;138419;-65
2022/12/08 21:55:28;;;;;;;49.80;24.50;;;;;;;5.68;62.33;98361.14;226697;1238;138715;-65
2022/12/08 22:00:32;;;;;;;48.60;24.20;;;;;;;5.68;62.60;98361.30;226635;1238;138571;-64
2022/12/08 22:05:36;;;;;;;46.30;24.90;;;;;;;5.64;62.37;98363.46;226613;1249;139111;-65
2022/12/08 22:10:39;;;;;;;61.20;27.90;;;;;;;5.63;62.81;98357.70;226819;1249;138625;-64
2022/12/08 22:15:43;;;;;;;53.10;26.30;;;;;;;5.66;62.58;98346.82;226668;1244;138374;-63
2022/12/08 22:20:49;;;;;;;52.50;27.00;;;;;;;5.63;62.91;98346.96;226742;1239;138339;-64
2022/12/08 22:26:02;;;;;;;52.70;26.70;;;;;;;5.60;62.49;98345.86;226786;1238;138178;-64
2022/12/08 22:31:10;;;;;;;61.20;28.60;;;;;;;5.58;62.90;98348.27;226550;1240;138371;-66
2022/12/08 22:36:27;;;;;;;56.20;28.90;;;;;;;5.57;62.91;98354.83;226447;1252;138764;-64
2022/12/08 22:41:39;;;;;;;58.70;27.40;;;;;;;5.57;63.24;98349.39;226693;1235;138229;-63
2022/12/08 22:46:43;;;;;;;54.10;28.40;;;;;;;5.62;63.37;98340.34;226859;1245;139387;-64
2022/12/08 22:51:47;;;;;;;63.40;29.30;;;;;;;5.67;63.15;98341.98;226701;1241;138675;-66
2022/12/08 22:56:51;;;;;;;54.00;28.70;;;;;;;5.71;62.82;98336.13;226257;1235;137930;-66
2022/12/08 23:01:54;;;;;;;63.60;31.80;;;;;;;5.74;62.87;98328.77;226574;1244;139410;-64
2022/12/08 23:06:58;;;;;;;64.70;30.80;;;;;;;5.78;62.83;98325.89;226786;1237;138044;-64
2022/12/08 23:12:03;;;;;;;57.20;29.40;;;;;;;5.80;62.78;98329.30;227738;1228;138399;-64
2022/12/08 23:17:08;;;;;;;54.30;29.70;;;;;;;5.76;62.41;98333.08;226422;1241;139340;-65
2022/12/08 23:22:11;;;;;;;47.90;28.00;;;;;;;5.71;62.57;98333.48;227791;1226;138826;-65
2022/12/08 23:27:15;;;;;;;53.30;28.50;;;;;;;5.69;62.58;98332.01;226687;1234;138129;-64
2022/12/08 23:32:19;;;;;;;54.60;28.10;;;;;;;5.67;62.11;98336.15;226780;1235;138416;-64
2022/12/08 23:37:23;;;;;;;52.50;28.00;;;;;;;5.64;62.74;98327.54;227654;1248;138288;-64
2022/12/08 23:42:30;;;;;;;52.00;27.80;;;;;;;5.61;63.02;98325.42;226873;1238;138691;-66
2022/12/08 23:47:34;;;;;;;51.50;28.00;;;;;;;5.57;62.78;98326.52;226854;1237;138513;-65
2022/12/08 23:52:46;;;;;;;59.30;29.00;;;;;;;5.55;63.19;98323.66;227057;1240;140653;-65
2022/12/08 23:57:52;;;;;;;49.80;28.30;;;;;;;5.54;62.99;98324.58;226607;1233;138085;-63
